createdAt,value
2022-11-01T00:01:40.514Z,65.94
2022-11-01T00:04:07.203Z,66.56
2022-11-01T00:06:33.815Z,66.18
2022-11-01T00:09:00.431Z,66.34
2022-11-01T00:11:27.066Z,67.52
2022-11-01T00:13:53.708Z,68.54
2022-11-01T00:16:20.293Z,68.02
2022-11-01T00:18:46.892Z,67.89
2022-11-01T00:21:13.514Z,67.41
2022-11-01T00:23:40.146Z,67.58
2022-11-01T00:26:06.785Z,67.93
2022-11-01T00:28:33.390Z,67.49
2022-11-01T00:31:00.092Z,67.30
2022-11-01T00:33:26.698Z,66.89
2022-11-01T00:35:53.311Z,66.90
2022-11-01T00:38:19.923Z,66.90
2022-11-01T00:40:46.550Z,67.86
2022-11-01T00:43:13.250Z,67.69
2022-11-01T00:45:39.908Z,67.78
2022-11-01T00:48:06.571Z,67.03
2022-11-01T00:50:33.162Z,67.18
2022-11-01T00:52:59.786Z,67.14
2022-11-01T00:55:26.425Z,67.22
2022-11-01T00:57:53.041Z,68.09
2022-11-01T01:00:19.676Z,68.78
2022-11-01T01:02:46.296Z,67.66
2022-11-01T01:05:13.081Z,67.81
2022-11-01T01:07:39.670Z,68.03
2022-11-01T01:10:06.265Z,67.54
2022-11-01T01:12:32.894Z,67.34
2022-11-01T01:14:59.493Z,67.51
2022-11-01T01:17:28.677Z,67.19
2022-11-01T01:19:57.945Z,66.96
2022-11-01T01:22:24.574Z,66.52
2022-11-01T01:24:51.341Z,66.30
2022-11-01T01:27:17.963Z,66.21
2022-11-01T01:29:44.569Z,66.03
2022-11-01T01:32:11.356Z,65.88
2022-11-01T01:34:37.985Z,66.15
2022-11-01T01:37:04.585Z,66.42
2022-11-01T01:39:31.246Z,66.27
2022-11-01T01:41:57.871Z,66.17
2022-11-01T01:44:24.528Z,66.21
2022-11-01T01:46:51.127Z,66.79
2022-11-01T01:49:17.721Z,67.28
2022-11-01T01:51:44.342Z,66.92
2022-11-01T01:54:10.947Z,66.58
2022-11-01T01:56:37.577Z,66.73
2022-11-01T01:59:04.206Z,66.16
2022-11-01T02:01:30.958Z,66.27
2022-11-01T02:03:57.665Z,67.06
2022-11-01T02:08:55.781Z,66.89
2022-11-01T02:11:22.401Z,66.40
2022-11-01T02:13:49.043Z,66.21
2022-11-01T02:16:15.650Z,66.20
2022-11-01T02:18:42.302Z,66.07
2022-11-01T02:21:08.891Z,65.60
2022-11-01T02:23:35.525Z,65.51
2022-11-01T02:26:02.158Z,65.83
2022-11-01T02:28:28.814Z,65.94
2022-11-01T02:30:55.416Z,66.17
2022-11-01T02:33:22.106Z,66.30
2022-11-01T02:35:48.766Z,66.58
2022-11-01T02:38:15.383Z,66.69
2022-11-01T02:40:41.996Z,67.07
2022-11-01T02:43:08.607Z,66.93
2022-11-01T02:45:35.218Z,66.94
2022-11-01T02:48:01.851Z,66.68
2022-11-01T02:50:28.471Z,66.93
2022-11-01T02:52:55.094Z,67.57
2022-11-01T02:55:21.687Z,67.47
2022-11-01T02:57:48.321Z,67.08
2022-11-01T03:00:14.919Z,66.57
2022-11-01T03:02:41.567Z,67.49
2022-11-01T03:05:08.184Z,67.82
2022-11-01T03:07:34.872Z,67.39
2022-11-01T03:10:01.528Z,67.49
2022-11-01T03:14:55.681Z,67.45
2022-11-01T03:17:22.280Z,66.99
2022-11-01T03:19:48.905Z,67.18
2022-11-01T03:22:15.543Z,66.34
2022-11-01T03:24:42.163Z,65.98
2022-11-01T03:27:08.789Z,66.10
2022-11-01T03:29:35.413Z,65.71
2022-11-01T03:32:01.996Z,66.07
2022-11-01T03:34:28.618Z,65.80
2022-11-01T03:36:56.209Z,66.45
2022-11-01T03:39:22.799Z,66.95
2022-11-01T03:41:49.407Z,67.10
2022-11-01T03:44:16.025Z,66.71
2022-11-01T03:46:42.623Z,66.34
2022-11-01T03:49:09.329Z,66.21
2022-11-01T03:51:35.932Z,65.90
2022-11-01T03:54:02.546Z,65.25
2022-11-01T03:56:29.176Z,65.11
2022-11-01T03:58:55.862Z,65.69
2022-11-01T04:01:22.552Z,65.51
2022-11-01T04:03:49.318Z,65.41
2022-11-01T04:06:15.940Z,64.86
2022-11-01T04:08:42.570Z,64.94
2022-11-01T04:11:09.208Z,64.80
2022-11-01T04:13:35.827Z,64.75
2022-11-01T04:16:02.437Z,64.79
2022-11-01T04:18:29.261Z,65.01
2022-11-01T04:20:55.901Z,65.80
2022-11-01T04:23:22.496Z,65.61
2022-11-01T04:25:49.097Z,65.31
2022-11-01T04:28:15.712Z,65.01
2022-11-01T04:30:42.323Z,64.96
2022-11-01T04:33:08.945Z,64.71
2022-11-01T04:35:35.531Z,64.99
2022-11-01T04:38:02.325Z,64.80
2022-11-01T04:40:29.056Z,64.51
2022-11-01T04:42:55.654Z,64.56
2022-11-01T04:45:22.292Z,64.77
2022-11-01T04:47:48.918Z,64.99
2022-11-01T04:50:15.544Z,64.55
2022-11-01T04:52:42.172Z,64.19
2022-11-01T04:55:08.765Z,65.11
2022-11-01T04:57:35.413Z,65.19
2022-11-01T05:00:02.007Z,65.65
2022-11-01T05:02:28.644Z,65.28
2022-11-01T05:04:55.281Z,64.85
2022-11-01T05:07:21.879Z,64.81
2022-11-01T05:09:48.504Z,64.45
2022-11-01T05:12:15.108Z,64.51
2022-11-01T05:14:41.719Z,64.69
2022-11-01T05:17:08.320Z,65.11
2022-11-01T05:19:34.964Z,65.59
2022-11-01T05:22:01.591Z,65.36
2022-11-01T05:24:28.254Z,65.03
2022-11-01T05:26:54.892Z,64.99
2022-11-01T05:29:32.372Z,66.34
2022-11-01T05:31:59.712Z,66.55
2022-11-01T05:34:26.326Z,66.41
2022-11-01T05:36:52.928Z,66.88
2022-11-01T05:39:19.515Z,67.42
2022-11-01T05:41:46.128Z,67.17
2022-11-01T05:44:12.803Z,67.01
2022-11-01T05:46:39.438Z,67.18
2022-11-01T05:49:06.042Z,66.85
2022-11-01T05:51:32.625Z,66.31
2022-11-01T05:53:59.247Z,66.67
2022-11-01T05:56:25.842Z,66.57
2022-11-01T05:58:52.515Z,66.80
2022-11-01T06:01:19.213Z,67.32
2022-11-01T06:03:45.870Z,67.14
2022-11-01T06:06:12.587Z,67.83
2022-11-01T06:08:39.213Z,68.16
2022-11-01T06:11:05.834Z,68.29
2022-11-01T06:13:32.479Z,68.01
2022-11-01T06:15:59.125Z,68.13
2022-11-01T06:18:25.734Z,67.68
2022-11-01T06:20:52.329Z,68.13
2022-11-01T06:23:18.980Z,68.43
2022-11-01T06:25:45.615Z,68.97
2022-11-01T06:28:12.266Z,70.02
2022-11-01T06:30:38.910Z,70.20
2022-11-01T06:33:05.697Z,70.56
2022-11-01T06:35:32.501Z,69.14
2022-11-01T06:37:59.121Z,68.42
2022-11-01T06:40:25.712Z,68.16
2022-11-01T06:42:52.344Z,67.63
2022-11-01T06:45:18.954Z,67.33
2022-11-01T06:47:45.560Z,66.88
2022-11-01T06:50:12.205Z,66.72
2022-11-01T06:52:38.797Z,66.73
2022-11-01T06:55:05.423Z,66.22
2022-11-01T06:57:32.085Z,65.99
2022-11-01T06:59:58.715Z,65.83
2022-11-01T07:02:29.429Z,65.20
2022-11-01T07:04:56.610Z,65.67
2022-11-01T07:07:23.223Z,65.18
2022-11-01T07:09:49.912Z,65.68
2022-11-01T07:12:16.541Z,65.78
2022-11-01T07:14:43.179Z,65.83
2022-11-01T07:17:09.764Z,65.82
2022-11-01T07:19:36.372Z,66.69
2022-11-01T07:22:03.005Z,65.98
2022-11-01T07:24:29.622Z,65.33
2022-11-01T07:26:56.224Z,66.13
2022-11-01T07:29:22.841Z,65.56
2022-11-01T07:31:49.491Z,65.24
2022-11-01T07:34:16.134Z,64.75
2022-11-01T07:36:42.837Z,64.81
2022-11-01T07:39:09.433Z,65.06
2022-11-01T07:41:36.113Z,65.06
2022-11-01T07:44:02.730Z,64.92
2022-11-01T07:46:29.348Z,64.59
2022-11-01T07:48:56.015Z,64.40
2022-11-01T07:51:22.638Z,63.47
2022-11-01T07:53:49.328Z,63.67
2022-11-01T07:56:15.953Z,63.60
2022-11-01T07:58:42.582Z,62.70
2022-11-01T08:01:09.292Z,62.14
2022-11-01T08:03:35.967Z,62.37
2022-11-01T08:06:02.647Z,62.32
2022-11-01T08:08:29.232Z,62.89
2022-11-01T08:10:55.847Z,62.62
2022-11-01T08:13:22.433Z,61.90
2022-11-01T08:15:49.027Z,61.56
2022-11-01T08:18:15.651Z,61.10
2022-11-01T08:20:42.259Z,60.56
2022-11-01T08:23:08.880Z,60.78
2022-11-01T08:25:35.590Z,60.79
2022-11-01T08:28:02.177Z,59.70
2022-11-01T08:30:28.794Z,60.00
2022-11-01T08:32:55.404Z,60.37
2022-11-01T08:35:22.004Z,61.10
2022-11-01T08:37:48.659Z,60.95
2022-11-01T08:40:15.259Z,60.17
2022-11-01T08:42:41.881Z,60.04
2022-11-01T08:45:08.476Z,60.73
2022-11-01T08:47:35.063Z,59.91
2022-11-01T08:50:01.678Z,59.58
2022-11-01T08:52:28.279Z,60.26
2022-11-01T08:54:54.912Z,59.84
2022-11-01T08:57:21.565Z,59.94
2022-11-01T08:59:48.219Z,60.12
2022-11-01T09:02:14.953Z,59.06
2022-11-01T09:04:41.621Z,58.95
2022-11-01T09:07:08.321Z,59.15
2022-11-01T09:09:36.843Z,59.97
2022-11-01T09:12:03.458Z,59.15
2022-11-01T09:14:30.064Z,58.78
2022-11-01T09:16:56.709Z,59.06
2022-11-01T09:19:23.851Z,57.97
2022-11-01T09:21:50.531Z,58.33
2022-11-01T09:24:17.149Z,57.94
2022-11-01T09:26:43.794Z,57.39
2022-11-01T09:29:10.386Z,56.84
2022-11-01T09:31:36.993Z,57.17
2022-11-01T09:34:03.615Z,57.21
2022-11-01T09:36:30.201Z,56.36
2022-11-01T09:38:56.830Z,57.46
2022-11-01T09:41:23.476Z,57.23
2022-11-01T09:43:50.078Z,57.16
2022-11-01T09:46:16.770Z,56.91
2022-11-01T09:48:43.473Z,56.84
2022-11-01T09:51:10.061Z,56.88
2022-11-01T09:53:36.677Z,57.09
2022-11-01T09:56:03.320Z,58.23
2022-11-01T09:58:29.976Z,58.10
2022-11-01T10:00:56.600Z,57.66
2022-11-01T10:03:23.287Z,57.32
2022-11-01T10:06:23.808Z,57.61
2022-11-01T10:08:50.448Z,56.52
2022-11-01T10:11:17.075Z,56.19
2022-11-01T10:13:43.722Z,56.23
2022-11-01T10:16:10.321Z,56.31
2022-11-01T10:18:36.917Z,56.48
2022-11-01T10:21:03.596Z,56.56
2022-11-01T10:23:30.315Z,55.55
2022-11-01T10:25:56.935Z,54.71
2022-11-01T10:28:23.565Z,55.04
2022-11-01T10:30:50.242Z,55.29
2022-11-01T10:33:16.886Z,54.66
2022-11-01T10:35:43.556Z,54.59
2022-11-01T10:38:25.036Z,54.27
2022-11-01T10:40:57.086Z,55.59
2022-11-01T10:43:23.704Z,54.37
2022-11-01T10:45:50.291Z,53.66
2022-11-01T10:48:16.908Z,52.23
2022-11-01T10:50:43.499Z,51.91
2022-11-01T10:53:10.172Z,51.65
2022-11-01T10:55:36.874Z,51.61
2022-11-01T10:58:03.812Z,51.06
2022-11-01T11:00:30.723Z,50.45
2022-11-01T11:02:57.374Z,49.51
2022-11-01T11:05:23.985Z,49.44
2022-11-01T11:07:50.596Z,49.14
2022-11-01T11:10:19.664Z,49.30
2022-11-01T11:12:49.527Z,48.97
2022-11-01T11:15:16.179Z,49.38
2022-11-01T11:17:42.779Z,50.24
2022-11-01T11:20:09.403Z,50.94
2022-11-01T11:22:36.029Z,49.41
2022-11-01T11:25:02.637Z,49.15
2022-11-01T11:27:29.344Z,48.06
2022-11-01T11:29:55.929Z,49.70
2022-11-01T11:32:22.784Z,48.71
2022-11-01T11:34:49.431Z,48.03
2022-11-01T11:37:16.027Z,47.66
2022-11-01T11:39:42.650Z,46.42
2022-11-01T11:42:09.239Z,47.88
2022-11-01T11:44:35.891Z,49.06
2022-11-01T11:47:02.496Z,48.52
2022-11-01T11:49:29.111Z,47.85
2022-11-01T11:51:55.703Z,47.93
2022-11-01T11:54:22.317Z,47.20
2022-11-01T11:56:48.908Z,47.41
2022-11-01T11:59:15.508Z,48.79
2022-11-01T12:01:42.208Z,48.73
2022-11-01T12:04:08.874Z,49.15
2022-11-01T12:06:35.554Z,49.29
2022-11-01T12:09:02.147Z,47.91
2022-11-01T12:11:28.765Z,47.62
2022-11-01T12:13:55.362Z,47.40
2022-11-01T12:16:22.004Z,47.01
2022-11-01T12:18:48.658Z,46.18
2022-11-01T12:21:15.259Z,46.47
2022-11-01T12:23:41.862Z,46.24
2022-11-01T12:26:11.337Z,46.50
2022-11-01T12:28:40.619Z,45.34
2022-11-01T12:31:07.223Z,47.49
2022-11-01T12:33:33.866Z,46.85
2022-11-01T12:36:00.453Z,45.58
2022-11-01T12:38:27.129Z,46.26
2022-11-01T12:40:53.743Z,44.61
2022-11-01T12:43:20.450Z,43.92
2022-11-01T12:45:47.069Z,45.82
2022-11-01T12:48:13.686Z,44.45
2022-11-01T12:50:40.273Z,45.31
2022-11-01T12:53:06.900Z,44.15
2022-11-01T12:55:33.551Z,44.53
2022-11-01T12:58:00.209Z,44.96
2022-11-01T13:00:26.846Z,44.22
2022-11-01T13:02:53.433Z,44.07
2022-11-01T13:05:20.045Z,43.51
2022-11-01T13:07:46.663Z,44.81
2022-11-01T13:10:13.278Z,44.66
2022-11-01T13:12:40.032Z,44.36
2022-11-01T13:15:06.625Z,43.87
2022-11-01T13:17:33.240Z,43.29
2022-11-01T13:19:59.821Z,43.10
2022-11-01T13:22:26.438Z,43.21
2022-11-01T13:24:53.033Z,43.45
2022-11-01T13:27:19.666Z,44.20
2022-11-01T13:29:48.895Z,43.66
2022-11-01T13:32:18.518Z,43.89
2022-11-01T13:34:45.114Z,44.89
2022-11-01T13:37:11.734Z,44.33
2022-11-01T13:39:38.378Z,44.42
2022-11-01T13:42:04.980Z,44.33
2022-11-01T13:44:31.618Z,44.85
2022-11-01T13:46:58.214Z,44.66
2022-11-01T13:49:24.859Z,44.15
2022-11-01T13:51:51.541Z,44.37
2022-11-01T13:54:18.179Z,43.85
2022-11-01T13:56:44.801Z,44.24
2022-11-01T13:59:11.409Z,44.19
2022-11-01T14:01:38.140Z,44.62
2022-11-01T14:04:04.846Z,44.90
2022-11-01T14:06:31.493Z,44.65
2022-11-01T14:08:58.083Z,44.36
2022-11-01T14:11:24.708Z,45.70
2022-11-01T14:13:51.305Z,45.59
2022-11-01T14:16:17.929Z,45.71
2022-11-01T14:18:44.543Z,48.88
2022-11-01T14:21:11.170Z,50.34
2022-11-01T14:23:37.779Z,50.54
2022-11-01T14:26:04.417Z,50.85
2022-11-01T14:28:31.046Z,51.71
2022-11-01T14:30:57.689Z,52.03
2022-11-01T14:33:24.298Z,53.44
2022-11-01T14:35:50.905Z,53.80
2022-11-01T14:38:17.498Z,55.50
2022-11-01T14:40:44.136Z,55.71
2022-11-01T14:43:10.763Z,54.73
2022-11-01T14:45:37.394Z,55.11
2022-11-01T14:48:04.322Z,54.95
2022-11-01T14:50:31.273Z,54.27
2022-11-01T14:52:57.911Z,54.25
2022-11-01T14:55:24.872Z,53.72
2022-11-01T14:57:51.513Z,53.79
2022-11-01T15:00:18.113Z,54.10
2022-11-01T15:02:44.802Z,54.03
2022-11-01T15:05:11.532Z,53.29
2022-11-01T15:07:38.155Z,53.67
2022-11-01T15:10:04.782Z,54.15
2022-11-01T15:12:31.429Z,53.81
2022-11-01T15:14:58.043Z,53.41
2022-11-01T15:17:24.643Z,53.73
2022-11-01T15:19:51.272Z,53.63
2022-11-01T15:22:17.932Z,53.87
2022-11-01T15:24:44.528Z,54.19
2022-11-01T15:27:11.174Z,54.23
2022-11-01T15:29:37.766Z,54.77
2022-11-01T15:32:04.394Z,54.73
2022-11-01T15:34:31.004Z,54.60
2022-11-01T15:36:57.641Z,54.98
2022-11-01T15:39:24.258Z,55.08
2022-11-01T15:41:50.887Z,54.87
2022-11-01T15:44:17.513Z,54.64
2022-11-01T15:46:44.106Z,54.55
2022-11-01T15:49:10.727Z,54.74
2022-11-01T15:51:37.351Z,54.96
2022-11-01T15:54:03.976Z,54.77
2022-11-01T15:56:30.603Z,54.53
2022-11-01T15:58:57.200Z,53.15
2022-11-01T16:01:24.005Z,53.76
2022-11-01T16:03:50.719Z,53.47
2022-11-01T16:06:17.314Z,53.89
2022-11-01T16:08:43.940Z,56.41
2022-11-01T16:11:10.570Z,57.84
2022-11-01T16:13:37.164Z,59.60
2022-11-01T16:16:03.825Z,59.13
2022-11-01T16:18:30.443Z,58.90
2022-11-01T16:20:57.082Z,57.77
2022-11-01T16:23:23.689Z,57.41
2022-11-01T16:25:50.331Z,57.34
2022-11-01T16:28:16.941Z,57.03
2022-11-01T16:30:43.562Z,56.69
2022-11-01T16:33:10.167Z,56.55
2022-11-01T16:35:36.793Z,55.69
2022-11-01T16:38:03.706Z,54.90
2022-11-01T16:40:30.514Z,55.38
2022-11-01T16:42:57.110Z,56.11
2022-11-01T16:45:23.722Z,55.69
2022-11-01T16:47:53.184Z,55.04
2022-11-01T16:50:22.235Z,54.97
2022-11-01T16:52:48.844Z,54.81
2022-11-01T16:55:15.467Z,54.33
2022-11-01T16:57:42.094Z,54.42
2022-11-01T17:00:08.715Z,54.07
2022-11-01T17:02:35.369Z,54.49
2022-11-01T17:05:02.004Z,54.91
2022-11-01T17:07:28.651Z,54.70
2022-11-01T17:09:55.241Z,54.80
2022-11-01T17:12:21.844Z,54.32
2022-11-01T17:14:48.462Z,54.90
2022-11-01T17:17:15.083Z,54.97
2022-11-01T17:19:41.710Z,54.67
2022-11-01T17:22:08.307Z,54.63
2022-11-01T17:24:34.945Z,54.43
2022-11-01T17:27:01.536Z,54.94
2022-11-01T17:29:28.140Z,54.97
2022-11-01T17:31:54.853Z,54.67
2022-11-01T17:34:21.476Z,54.48
2022-11-01T17:36:48.146Z,54.47
2022-11-01T17:39:14.774Z,54.42
2022-11-01T17:41:41.393Z,54.52
2022-11-01T17:44:08.008Z,54.54
2022-11-01T17:46:34.637Z,55.04
2022-11-01T17:49:01.235Z,55.23
2022-11-01T17:51:27.832Z,54.94
2022-11-01T17:53:54.521Z,55.65
2022-11-01T17:56:21.150Z,56.48
2022-11-01T17:58:51.198Z,56.16
2022-11-01T18:01:18.954Z,55.91
2022-11-01T18:03:45.654Z,56.44
2022-11-01T18:06:12.273Z,55.99
2022-11-01T18:08:38.885Z,55.96
2022-11-01T18:11:05.534Z,55.85
2022-11-01T18:13:32.123Z,55.95
2022-11-01T18:15:58.799Z,56.02
2022-11-01T18:18:25.591Z,56.03
2022-11-01T18:20:52.212Z,57.40
2022-11-01T18:23:18.804Z,58.04
2022-11-01T18:25:45.449Z,57.74
2022-11-01T18:28:12.054Z,57.40
2022-11-01T18:30:38.874Z,57.38
2022-11-01T18:33:05.529Z,57.28
2022-11-01T18:35:32.584Z,57.09
2022-11-01T18:37:59.550Z,57.78
2022-11-01T18:40:26.259Z,57.44
2022-11-01T18:42:52.882Z,57.34
2022-11-01T18:45:19.500Z,57.21
2022-11-01T18:47:46.112Z,57.82
2022-11-01T18:50:16.245Z,57.69
2022-11-01T18:52:43.222Z,57.38
2022-11-01T18:55:09.876Z,57.45
2022-11-01T18:57:36.519Z,57.47
2022-11-01T19:00:03.214Z,57.88
2022-11-01T19:02:31.309Z,57.68
2022-11-01T19:04:58.087Z,57.60
2022-11-01T19:07:24.723Z,57.53
2022-11-01T19:09:51.340Z,57.58
2022-11-01T19:12:18.032Z,57.91
2022-11-01T19:14:44.683Z,57.88
2022-11-01T19:17:11.320Z,57.72
2022-11-01T19:19:37.940Z,57.69
2022-11-01T19:22:04.611Z,57.97
2022-11-01T19:24:31.228Z,58.01
2022-11-01T19:26:57.872Z,58.66
2022-11-01T19:29:24.491Z,59.26
2022-11-01T19:31:51.254Z,60.28
2022-11-01T19:34:17.868Z,61.38
2022-11-01T19:36:44.543Z,61.55
2022-11-01T19:39:11.309Z,61.40
2022-11-01T19:41:38.373Z,60.53
2022-11-01T19:44:05.011Z,60.45
2022-11-01T19:46:31.665Z,59.90
2022-11-01T19:48:58.301Z,59.88
2022-11-01T19:51:24.908Z,60.00
2022-11-01T19:53:51.534Z,60.03
2022-11-01T19:56:20.455Z,59.62
2022-11-01T19:58:47.083Z,59.39
2022-11-01T20:01:13.882Z,59.54
2022-11-01T20:03:40.582Z,59.08
2022-11-01T20:06:07.210Z,58.99
2022-11-01T20:08:33.835Z,59.33
2022-11-01T20:11:00.473Z,59.26
2022-11-01T20:13:27.124Z,59.26
2022-11-01T20:15:53.853Z,59.17
2022-11-01T20:18:20.468Z,59.21
2022-11-01T20:20:47.125Z,59.23
2022-11-01T20:23:25.813Z,59.24
2022-11-01T20:25:53.547Z,59.96
2022-11-01T20:28:20.210Z,59.71
2022-11-01T20:30:46.852Z,59.35
2022-11-01T20:33:13.501Z,59.35
2022-11-01T20:38:24.194Z,59.57
2022-11-01T20:40:50.800Z,59.64
2022-11-01T20:43:17.386Z,59.72
2022-11-01T20:45:44.057Z,59.93
2022-11-01T20:48:10.671Z,60.21
2022-11-01T20:50:37.267Z,60.69
2022-11-01T20:53:04.222Z,60.37
2022-11-01T20:55:31.163Z,60.48
2022-11-01T20:57:57.801Z,61.13
2022-11-01T21:00:24.423Z,61.64
2022-11-01T21:02:51.124Z,61.48
2022-11-01T21:05:17.729Z,61.69
2022-11-01T21:07:47.775Z,62.14
2022-11-01T21:10:14.917Z,61.43
2022-11-01T21:12:41.515Z,61.22
2022-11-01T21:15:08.183Z,61.32
2022-11-01T21:17:34.788Z,60.98
2022-11-01T21:20:01.452Z,60.89
2022-11-01T21:22:28.098Z,60.77
2022-11-01T21:24:55.735Z,61.46
2022-11-01T21:27:22.405Z,61.23
2022-11-01T21:29:49.092Z,61.48
2022-11-01T21:32:15.718Z,61.25
2022-11-01T21:34:42.419Z,61.49
2022-11-01T21:37:09.026Z,61.56
2022-11-01T21:39:35.658Z,61.75
2022-11-01T21:42:02.261Z,61.53
2022-11-01T21:44:28.890Z,62.05
2022-11-01T21:46:55.539Z,61.67
2022-11-01T21:49:22.179Z,61.81
2022-11-01T21:51:48.792Z,61.69
2022-11-01T21:54:15.449Z,61.82
2022-11-01T21:56:42.059Z,62.00
2022-11-01T21:59:08.727Z,62.18
2022-11-01T22:01:35.499Z,62.46
2022-11-01T22:04:02.158Z,64.44
2022-11-01T22:06:28.801Z,63.74
2022-11-01T22:08:55.411Z,63.27
2022-11-01T22:11:23.867Z,63.50
2022-11-01T22:13:50.527Z,63.72
2022-11-01T22:16:17.118Z,62.99
2022-11-01T22:18:43.734Z,62.90
2022-11-01T22:21:10.397Z,62.61
2022-11-01T22:23:36.982Z,63.46
2022-11-01T22:26:03.584Z,63.62
2022-11-01T22:28:30.223Z,63.60
2022-11-01T22:30:56.851Z,63.98
2022-11-01T22:33:23.478Z,63.68
2022-11-01T22:35:50.060Z,63.57
2022-11-01T22:38:16.677Z,63.13
2022-11-01T22:40:43.276Z,62.46
2022-11-01T22:43:09.900Z,62.22
2022-11-01T22:45:36.519Z,62.35
2022-11-01T22:48:03.159Z,62.44
2022-11-01T22:50:29.749Z,62.31
2022-11-01T22:55:40.378Z,63.26
2022-11-01T22:58:06.992Z,63.24
2022-11-01T23:00:33.740Z,62.93
2022-11-01T23:03:00.585Z,62.81
2022-11-01T23:05:27.393Z,62.87
2022-11-01T23:07:53.992Z,62.80
2022-11-01T23:10:20.619Z,62.28
2022-11-01T23:12:47.217Z,62.49
2022-11-01T23:15:13.881Z,62.90
2022-11-01T23:17:40.466Z,62.88
2022-11-01T23:20:07.081Z,62.69
2022-11-01T23:22:33.681Z,62.46
2022-11-01T23:25:00.301Z,62.40
2022-11-01T23:27:26.880Z,62.57
2022-11-01T23:29:53.506Z,62.73
2022-11-01T23:32:20.124Z,63.15
2022-11-01T23:34:46.739Z,63.77
2022-11-01T23:37:13.377Z,63.41
2022-11-01T23:39:39.960Z,63.15
2022-11-01T23:42:06.572Z,62.64
2022-11-01T23:44:33.236Z,62.88
2022-11-01T23:46:59.835Z,63.63
2022-11-01T23:49:26.459Z,64.17
2022-11-01T23:51:53.047Z,63.56
2022-11-01T23:54:19.716Z,63.37
2022-11-01T23:56:46.344Z,63.29
2022-11-01T23:59:12.926Z,63.72
